Key Lake Airport
CYKJ : now visible

Airfield :











YOU CAN JOIN US ON...

 
LOGIN :

Register | Disclaimer

   EN    FR    IT 

 









Legend :    VFR   Marginal VFR   IFR   Intensive IFR   Very Intensive IFR
Visi :
Ceiling :
>= 8 km
>= 3000ft
5 to 8 km
1000 to 3000 ft
1500m to 5 km
500 to 1000 ft
800 to 1500m
200 to 500 ft
< 800m
< 200 ft
Symbols :   Thunderstorms  Fog  Heavy snow  Heavy precipitations  Wind > 20 kt






- Airport Elevation : 1679 ft
- IATA code : YKJ


CYKJ - Key Lake

CURRENT METAR :
  • 140900Z AUTO 32013G23KT 9SM SCT024 BKN030 M12/M16 A2991 RMK SLP173

EXPIRED METARs :
  • 140841Z AUTO 31012G21KT 9SM -SN SCT024 SCT032 M11/M14 A2990 RMK SLP170
  • 140826Z AUTO 31011G24KT 9SM SCT024 BKN065 M11/M14 A2989 RMK SLP166
  • 140813Z AUTO 31011G20KT 9SM -SN BKN024 OVC065 M11/M14 A2989 RMK SLP164
  • 140800Z AUTO 31013G21KT 9SM -SN BKN026 OVC070 M10/M13 A2988 RMK SLP163
  • 140729Z AUTO 31014G23KT 9SM -SN BKN020 BKN026 OVC130 M10/M12 A2986 RMK SLP155
  • 140700Z AUTO 31010G19KT 9SM -SN BKN016 BKN050 M10/M11 A2985 RMK SLP149
  • 140600Z AUTO 30009KT 9SM -SN BKN014 OVC047 M10/M12 A2983 RMK SLP146

Expired Forecast.



MET'MAP, your aeronautical weather chart ! - Copyright ORBIFLY December 2007 - Disclaimer

ORBIFLY MET'MAP TEAM :

Programming & Development : Alexandra Zaïnal
Concept & Development : Baudouin d'Aumeries
Co-Development & Prog : Marc-Olivier Méhu
Technical & hardware support : Manuel Goepfert

Contact : metmap@orbifly.com




SOURCES & CREDITS :

   NOAA       Earth
Advisory